createdAt,value
2023-02-03T00:01:47.147Z,4.44
2023-02-03T00:04:13.853Z,4.49
2023-02-03T00:06:40.698Z,4.48
2023-02-03T00:09:07.333Z,4.49
2023-02-03T00:11:33.898Z,4.48
2023-02-03T00:14:00.356Z,4.47
2023-02-03T00:16:26.935Z,4.49
2023-02-03T00:18:53.483Z,4.41
2023-02-03T00:21:20.310Z,4.45
2023-02-03T00:23:46.695Z,4.42
2023-02-03T00:26:15.574Z,4.44
2023-02-03T00:28:42.859Z,4.35
2023-02-03T00:31:16.988Z,4.38
2023-02-03T00:33:43.823Z,4.35
2023-02-03T00:36:11.202Z,4.37
2023-02-03T00:38:37.978Z,4.35
2023-02-03T00:41:04.547Z,4.37
2023-02-03T00:43:31.138Z,4.33
2023-02-03T00:45:57.660Z,4.34
2023-02-03T00:48:26.370Z,4.33
2023-02-03T00:50:53.233Z,4.33
2023-02-03T00:53:19.739Z,4.38
2023-02-03T00:55:46.188Z,4.35
2023-02-03T00:58:12.535Z,4.35
2023-02-03T01:00:39.113Z,4.39
2023-02-03T01:03:05.712Z,4.38
2023-02-03T01:05:32.286Z,4.32
2023-02-03T01:07:58.874Z,4.38
2023-02-03T01:10:25.695Z,4.34
2023-02-03T01:12:52.261Z,4.38
2023-02-03T01:15:18.782Z,4.40
2023-02-03T01:17:45.231Z,4.42
2023-02-03T01:20:13.697Z,4.35
2023-02-03T01:22:40.555Z,4.37
2023-02-03T01:25:07.387Z,4.36
2023-02-03T01:27:34.116Z,4.34
2023-02-03T01:30:00.435Z,4.36
2023-02-03T01:32:27.559Z,4.35
2023-02-03T01:34:53.939Z,4.33
2023-02-03T01:37:20.407Z,4.33
2023-02-03T01:39:46.928Z,4.39
2023-02-03T01:42:14.644Z,4.43
2023-02-03T01:44:43.133Z,4.39
2023-02-03T01:47:27.287Z,4.38
2023-02-03T01:50:11.761Z,4.42
2023-02-03T01:52:41.145Z,4.42
2023-02-03T01:55:13.274Z,4.46
2023-02-03T01:57:57.380Z,4.50
2023-02-03T02:00:24.423Z,4.43
2023-02-03T02:02:52.343Z,4.43
2023-02-03T02:05:27.325Z,4.48
2023-02-03T02:07:56.537Z,4.49
2023-02-03T02:10:22.937Z,4.48
2023-02-03T02:12:49.923Z,4.48
2023-02-03T02:15:16.493Z,4.49
2023-02-03T02:18:19.456Z,4.54
2023-02-03T02:21:00.706Z,4.56
2023-02-03T02:23:55.428Z,4.56
2023-02-03T02:26:37.083Z,4.57
2023-02-03T02:29:13.073Z,4.60
2023-02-03T02:31:48.264Z,4.63
2023-02-03T02:34:22.756Z,4.64
2023-02-03T02:37:00.391Z,4.63
2023-02-03T02:40:03.482Z,4.72
2023-02-03T02:42:44.184Z,4.67
2023-02-03T02:45:14.648Z,4.76
2023-02-03T02:47:41.648Z,4.71
2023-02-03T02:50:22.896Z,4.75
2023-02-03T02:52:51.529Z,4.76
2023-02-03T02:55:27.962Z,4.68
2023-02-03T02:57:58.015Z,4.72
2023-02-03T03:00:25.060Z,4.72
2023-02-03T03:02:51.605Z,4.69
2023-02-03T03:05:19.016Z,4.67
2023-02-03T03:07:51.551Z,4.65
2023-02-03T03:10:24.788Z,4.67
2023-02-03T03:12:57.601Z,4.67
2023-02-03T03:15:28.332Z,4.67
2023-02-03T03:17:57.780Z,4.69
2023-02-03T03:20:27.489Z,4.72
2023-02-03T03:23:01.376Z,4.75
2023-02-03T03:25:39.570Z,4.74
2023-02-03T03:28:13.946Z,4.76
2023-02-03T03:30:40.824Z,4.80
2023-02-03T03:33:09.034Z,4.76
2023-02-03T03:35:49.128Z,4.75
2023-02-03T03:38:24.687Z,4.77
2023-02-03T03:40:58.779Z,4.78
2023-02-03T03:43:30.224Z,4.80
2023-02-03T03:46:22.868Z,4.79
2023-02-03T03:49:03.328Z,4.76
2023-02-03T03:51:44.961Z,4.74
2023-02-03T03:54:17.012Z,4.74
2023-02-03T03:57:15.515Z,4.71
2023-02-03T03:59:47.764Z,4.74
2023-02-03T04:02:16.316Z,4.83
2023-02-03T04:04:45.427Z,4.72
2023-02-03T04:07:15.022Z,4.68
2023-02-03T04:09:43.102Z,4.69
2023-02-03T04:12:22.001Z,4.64
2023-02-03T04:14:48.446Z,4.72
2023-02-03T04:17:14.893Z,4.69
2023-02-03T04:19:41.267Z,4.67
2023-02-03T04:22:07.781Z,4.68
2023-02-03T04:24:34.317Z,4.62
2023-02-03T04:27:00.858Z,4.59
2023-02-03T04:29:27.413Z,4.56
2023-02-03T04:31:54.011Z,4.62
2023-02-03T04:34:20.591Z,4.66
2023-02-03T04:36:47.141Z,4.59
2023-02-03T04:39:13.686Z,4.58
2023-02-03T04:41:40.328Z,4.57
2023-02-03T04:44:06.815Z,4.57
2023-02-03T04:46:33.406Z,4.64
2023-02-03T04:48:59.912Z,4.67
2023-02-03T04:51:26.504Z,4.70
2023-02-03T04:53:53.018Z,4.69
2023-02-03T04:56:19.565Z,4.68
2023-02-03T04:58:46.165Z,4.80
2023-02-03T05:01:12.903Z,4.68
2023-02-03T05:03:39.546Z,4.71
2023-02-03T05:06:06.179Z,4.69
2023-02-03T05:08:33.628Z,4.72
2023-02-03T05:11:02.011Z,4.72
2023-02-03T05:13:29.020Z,4.68
2023-02-03T05:15:55.386Z,4.68
2023-02-03T05:18:21.711Z,4.69
2023-02-03T05:20:48.088Z,4.71
2023-02-03T05:23:14.806Z,4.71
2023-02-03T05:25:43.732Z,4.74
2023-02-03T05:28:10.365Z,4.64
2023-02-03T05:30:38.088Z,4.70
2023-02-03T05:33:04.544Z,4.68
2023-02-03T05:35:31.439Z,4.69
2023-02-03T05:37:59.523Z,4.67
2023-02-03T05:40:45.368Z,4.71
2023-02-03T05:43:12.529Z,4.68
2023-02-03T05:45:39.485Z,4.69
2023-02-03T05:48:07.542Z,4.68
2023-02-03T05:50:37.459Z,4.68
2023-02-03T05:53:05.981Z,4.62
2023-02-03T05:55:33.507Z,4.65
2023-02-03T05:58:01.237Z,4.63
2023-02-03T06:00:29.076Z,4.57
2023-02-03T06:02:58.006Z,4.59
2023-02-03T06:05:25.561Z,4.61
2023-02-03T06:07:52.220Z,4.59
2023-02-03T06:10:18.861Z,4.62
2023-02-03T06:12:45.278Z,4.68
2023-02-03T06:15:11.793Z,4.70
2023-02-03T06:17:38.578Z,4.69
2023-02-03T06:20:09.607Z,4.70
2023-02-03T06:22:36.133Z,4.69
2023-02-03T06:25:02.679Z,4.73
2023-02-03T06:27:29.175Z,4.61
2023-02-03T06:29:55.556Z,4.60
2023-02-03T06:32:22.077Z,4.63
2023-02-03T06:34:48.727Z,4.59
2023-02-03T06:37:15.179Z,4.58
2023-02-03T06:39:41.876Z,4.53
2023-02-03T06:42:08.433Z,4.55
2023-02-03T06:44:34.957Z,4.54
2023-02-03T06:47:03.133Z,4.57
2023-02-03T06:49:30.188Z,4.62
2023-02-03T06:51:57.160Z,4.60
2023-02-03T06:54:23.751Z,4.68
2023-02-03T06:56:50.295Z,4.64
2023-02-03T06:59:16.645Z,4.67
2023-02-03T07:01:43.532Z,4.70
2023-02-03T07:04:10.441Z,4.73
2023-02-03T07:06:37.063Z,4.72
2023-02-03T07:09:05.612Z,4.76
2023-02-03T07:11:32.585Z,4.78
2023-02-03T07:13:59.455Z,4.77
2023-02-03T07:16:27.437Z,4.79
2023-02-03T07:18:54.010Z,4.85
2023-02-03T07:21:20.376Z,4.78
2023-02-03T07:23:48.478Z,4.79
2023-02-03T07:26:15.079Z,4.76
2023-02-03T07:28:41.720Z,4.75
2023-02-03T07:31:10.584Z,4.85
2023-02-03T07:33:38.351Z,4.72
2023-02-03T07:36:05.862Z,4.80
2023-02-03T07:38:32.448Z,4.71
2023-02-03T07:40:59.013Z,4.78
2023-02-03T07:43:25.846Z,4.69
2023-02-03T07:45:52.280Z,4.70
2023-02-03T07:48:18.894Z,4.79
2023-02-03T07:50:45.894Z,4.80
2023-02-03T07:53:12.414Z,4.78
2023-02-03T07:55:39.780Z,4.81
2023-02-03T07:58:06.387Z,4.80
2023-02-03T08:00:33.215Z,4.81
2023-02-03T08:02:59.795Z,4.78
2023-02-03T08:05:26.519Z,4.80
2023-02-03T08:07:53.019Z,4.81
2023-02-03T08:10:19.639Z,4.86
2023-02-03T08:12:47.162Z,4.80
2023-02-03T08:15:14.505Z,4.88
2023-02-03T08:17:42.169Z,4.84
2023-02-03T08:20:09.921Z,4.82
2023-02-03T08:22:36.505Z,4.80
2023-02-03T08:25:04.023Z,4.83
2023-02-03T08:27:31.762Z,4.82
2023-02-03T08:29:58.869Z,4.84
2023-02-03T08:32:26.099Z,4.79
2023-02-03T08:34:53.100Z,4.78
2023-02-03T08:37:24.450Z,4.82
2023-02-03T08:39:52.111Z,4.84
2023-02-03T08:42:19.497Z,4.84
2023-02-03T08:44:46.060Z,4.79
2023-02-03T08:47:13.105Z,4.80
2023-02-03T08:49:39.952Z,4.88
2023-02-03T08:52:08.213Z,4.75
2023-02-03T08:54:35.097Z,4.68
2023-02-03T08:57:01.693Z,4.69
2023-02-03T08:59:29.336Z,4.72
2023-02-03T09:01:55.909Z,4.68
2023-02-03T09:04:25.916Z,4.71
2023-02-03T09:06:56.319Z,4.69
2023-02-03T09:09:24.220Z,4.66
2023-02-03T09:11:50.712Z,4.60
2023-02-03T09:14:17.105Z,4.66
2023-02-03T09:16:43.702Z,4.63
2023-02-03T09:19:10.358Z,4.68
2023-02-03T09:21:41.992Z,4.75
2023-02-03T09:24:15.736Z,4.72
2023-02-03T09:26:42.398Z,4.73
2023-02-03T09:29:09.030Z,4.82
2023-02-03T09:31:36.150Z,4.79
2023-02-03T09:34:02.955Z,4.83
2023-02-03T09:36:29.477Z,4.75
2023-02-03T09:38:57.990Z,4.75
2023-02-03T09:41:49.294Z,4.81
2023-02-03T09:44:49.596Z,4.79
2023-02-03T09:47:21.240Z,4.80
2023-02-03T09:50:12.963Z,4.74
2023-02-03T09:52:41.778Z,4.80
2023-02-03T09:55:34.028Z,4.87
2023-02-03T09:58:10.196Z,4.86
2023-02-03T10:00:42.890Z,4.92
2023-02-03T10:03:27.553Z,4.96
2023-02-03T10:05:53.887Z,4.97
2023-02-03T10:08:45.215Z,4.92
2023-02-03T10:11:29.905Z,5.08
2023-02-03T10:14:12.672Z,5.10
2023-02-03T10:16:54.315Z,5.14
2023-02-03T10:19:28.240Z,5.29
2023-02-03T10:21:59.085Z,5.17
2023-02-03T10:24:37.679Z,5.15
2023-02-03T10:27:04.570Z,5.24
2023-02-03T10:29:37.775Z,5.35
2023-02-03T10:32:09.670Z,5.37
2023-02-03T10:34:37.233Z,5.41
2023-02-03T10:37:13.835Z,5.27
2023-02-03T10:39:46.642Z,5.39
2023-02-03T10:42:13.947Z,5.34
2023-02-03T10:44:44.955Z,5.43
2023-02-03T10:47:45.663Z,5.49
2023-02-03T10:50:31.710Z,5.49
2023-02-03T10:53:34.127Z,5.51
2023-02-03T10:56:08.969Z,5.36
2023-02-03T10:58:38.014Z,5.51
2023-02-03T11:01:16.992Z,5.44
2023-02-03T11:03:54.041Z,5.48
2023-02-03T11:06:20.694Z,5.53
2023-02-03T11:08:49.520Z,5.39
2023-02-03T11:11:24.722Z,5.39
2023-02-03T11:14:00.951Z,5.29
2023-02-03T11:16:27.694Z,5.33
2023-02-03T11:18:58.227Z,5.37
2023-02-03T11:21:32.457Z,5.40
2023-02-03T11:24:18.953Z,5.44
2023-02-03T11:26:49.751Z,5.50
2023-02-03T11:29:28.543Z,5.43
2023-02-03T11:31:57.482Z,5.44
2023-02-03T11:34:28.817Z,5.58
2023-02-03T11:36:56.343Z,5.49
2023-02-03T11:39:26.106Z,5.54
2023-02-03T11:41:53.472Z,5.49
2023-02-03T11:44:26.427Z,5.50
2023-02-03T11:46:58.075Z,5.45
2023-02-03T11:49:46.080Z,5.49
2023-02-03T11:52:12.552Z,5.49
2023-02-03T11:54:47.556Z,5.45
2023-02-03T11:57:30.753Z,5.54
2023-02-03T12:00:22.133Z,5.57
2023-02-03T12:03:30.864Z,5.45
2023-02-03T12:06:15.337Z,5.52
2023-02-03T12:08:52.080Z,5.60
2023-02-03T12:12:01.416Z,5.60
2023-02-03T12:15:03.016Z,5.63
2023-02-03T12:17:51.284Z,5.70
2023-02-03T12:20:26.990Z,5.71
2023-02-03T12:22:59.730Z,5.76
2023-02-03T12:25:29.182Z,5.67
2023-02-03T12:28:32.242Z,5.73
2023-02-03T12:31:41.046Z,5.74
2023-02-03T12:34:23.699Z,5.77
2023-02-03T12:37:01.161Z,5.86
2023-02-03T12:39:50.685Z,5.90
2023-02-03T12:42:46.385Z,5.90
2023-02-03T12:45:27.166Z,5.88
2023-02-03T12:47:58.796Z,5.97
2023-02-03T12:50:41.063Z,5.99
2023-02-03T12:53:20.260Z,5.95
2023-02-03T12:56:02.926Z,5.97
2023-02-03T12:58:39.112Z,5.91
2023-02-03T13:01:23.609Z,5.98
2023-02-03T13:04:19.046Z,5.97
2023-02-03T13:07:25.807Z,6.05
2023-02-03T13:10:03.528Z,6.05
2023-02-03T13:12:36.680Z,6.11
2023-02-03T13:15:29.941Z,6.14
2023-02-03T13:18:15.846Z,6.10
2023-02-03T13:20:42.489Z,6.10
2023-02-03T13:23:14.197Z,6.11
2023-02-03T13:26:06.204Z,6.11
2023-02-03T13:29:13.735Z,6.12
2023-02-03T13:32:09.896Z,6.17
2023-02-03T13:34:43.766Z,6.12
2023-02-03T13:37:16.429Z,6.06
2023-02-03T13:40:13.129Z,5.96
2023-02-03T13:42:52.047Z,5.97
2023-02-03T13:45:31.103Z,6.02
2023-02-03T13:48:20.691Z,5.99
2023-02-03T13:50:49.441Z,6.04
2023-02-03T13:53:22.428Z,6.08
2023-02-03T13:56:04.472Z,6.06
2023-02-03T13:58:34.191Z,6.17
2023-02-03T14:01:02.652Z,6.19
2023-02-03T14:03:29.189Z,6.26
2023-02-03T14:05:57.430Z,6.31
2023-02-03T14:08:30.079Z,6.36
2023-02-03T14:11:33.790Z,6.38
2023-02-03T14:14:09.311Z,6.48
2023-02-03T14:16:42.748Z,6.47
2023-02-03T14:19:10.258Z,6.45
2023-02-03T14:21:49.013Z,6.43
2023-02-03T14:24:16.775Z,6.42
2023-02-03T14:26:50.638Z,6.37
2023-02-03T14:29:29.927Z,6.40
2023-02-03T14:32:04.072Z,6.35
2023-02-03T14:34:39.652Z,6.33
2023-02-03T14:37:14.502Z,6.41
2023-02-03T14:40:11.451Z,6.33
2023-02-03T14:43:10.899Z,6.38
2023-02-03T14:45:44.449Z,6.40
2023-02-03T14:48:29.928Z,6.43
2023-02-03T14:51:05.037Z,6.44
2023-02-03T14:53:47.753Z,6.46
2023-02-03T14:57:06.898Z,6.45
2023-02-03T15:00:03.584Z,6.40
2023-02-03T15:02:31.486Z,6.36
2023-02-03T15:05:13.522Z,6.38
2023-02-03T15:07:51.161Z,6.39
2023-02-03T15:10:44.868Z,6.32
2023-02-03T15:13:31.105Z,6.24
2023-02-03T15:16:00.304Z,6.19
2023-02-03T15:18:40.981Z,6.20
2023-02-03T15:21:17.153Z,6.06
2023-02-03T15:23:48.365Z,5.99
2023-02-03T15:26:20.016Z,5.88
2023-02-03T15:28:56.600Z,5.89
2023-02-03T15:31:48.777Z,5.82
2023-02-03T15:34:23.073Z,5.79
2023-02-03T15:36:54.322Z,5.80
2023-02-03T15:39:44.040Z,5.77
2023-02-03T15:42:33.903Z,5.75
2023-02-03T15:45:07.681Z,5.70
2023-02-03T15:47:41.169Z,5.67
2023-02-03T15:50:21.149Z,5.69
2023-02-03T15:52:50.064Z,5.66
2023-02-03T15:55:24.402Z,5.68
2023-02-03T15:57:51.238Z,5.71
2023-02-03T16:00:32.229Z,5.62
2023-02-03T16:03:00.375Z,5.69
2023-02-03T16:05:33.034Z,5.60
2023-02-03T16:08:29.716Z,5.60
2023-02-03T16:10:56.858Z,5.56
2023-02-03T16:13:26.943Z,5.56
2023-02-03T16:16:24.808Z,5.53
2023-02-03T16:18:54.915Z,5.58
2023-02-03T16:21:43.010Z,5.46
2023-02-03T16:24:45.740Z,5.43
2023-02-03T16:27:27.760Z,5.43
2023-02-03T16:30:33.845Z,5.40
2023-02-03T16:33:28.930Z,5.32
2023-02-03T16:36:15.218Z,5.33
2023-02-03T16:39:07.315Z,5.29
2023-02-03T16:41:53.208Z,5.31
2023-02-03T16:44:38.355Z,5.30
2023-02-03T16:47:40.699Z,5.27
2023-02-03T16:50:38.156Z,5.28
2023-02-03T16:53:11.314Z,5.21
2023-02-03T16:55:37.730Z,5.29
2023-02-03T16:58:04.333Z,5.22
2023-02-03T17:00:30.911Z,5.25
2023-02-03T17:02:58.678Z,5.30
2023-02-03T17:05:25.339Z,5.30
2023-02-03T17:07:51.748Z,5.25
2023-02-03T17:10:18.135Z,5.29
2023-02-03T17:12:44.714Z,5.29
2023-02-03T17:15:11.404Z,5.27
2023-02-03T17:17:38.016Z,5.28
2023-02-03T17:20:05.250Z,5.33
2023-02-03T17:22:32.284Z,5.32
2023-02-03T17:24:58.622Z,5.33
2023-02-03T17:27:25.228Z,5.34
2023-02-03T17:29:51.781Z,5.33
2023-02-03T17:32:18.397Z,5.31
2023-02-03T17:34:44.799Z,5.29
2023-02-03T17:37:11.518Z,5.30
2023-02-03T17:53:20.496Z,5.34
2023-02-03T17:58:19.501Z,5.38
2023-02-03T18:00:46.060Z,5.37
2023-02-03T18:03:12.511Z,5.41
2023-02-03T18:05:39.473Z,5.36
2023-02-03T18:08:15.980Z,5.37
2023-02-03T18:10:43.709Z,5.31
2023-02-03T18:13:10.583Z,5.31
2023-02-03T18:15:38.735Z,5.36
2023-02-03T18:18:05.283Z,5.40
2023-02-03T18:20:31.778Z,5.39
2023-02-03T18:22:58.420Z,5.44
2023-02-03T18:25:25.303Z,5.46
2023-02-03T18:27:52.402Z,5.47
2023-02-03T18:30:21.508Z,5.47
2023-02-03T18:32:51.727Z,5.44
2023-02-03T18:35:18.968Z,5.45
2023-02-03T18:37:45.583Z,5.50
2023-02-03T18:40:12.748Z,5.51
2023-02-03T18:42:39.356Z,5.49
2023-02-03T18:45:06.651Z,5.46
2023-02-03T18:47:33.755Z,5.46
2023-02-03T18:50:01.080Z,5.49
2023-02-03T18:52:27.563Z,5.60
2023-02-03T18:54:54.271Z,5.63
2023-02-03T18:57:22.764Z,5.72
2023-02-03T18:59:49.740Z,5.65
2023-02-03T19:02:16.460Z,5.73
2023-02-03T19:04:43.619Z,5.68
2023-02-03T19:07:12.171Z,5.72
2023-02-03T19:09:40.009Z,5.74
2023-02-03T19:12:07.846Z,5.72
2023-02-03T19:14:35.252Z,5.75
2023-02-03T19:17:03.168Z,5.79
2023-02-03T19:19:29.825Z,5.74
2023-02-03T19:21:56.484Z,5.80
2023-02-03T19:24:25.107Z,5.79
2023-02-03T19:26:51.767Z,5.83
2023-02-03T19:29:19.159Z,5.87
2023-02-03T19:31:45.992Z,5.86
2023-02-03T19:34:18.943Z,5.86
2023-02-03T19:36:47.242Z,5.93
2023-02-03T19:39:14.232Z,5.94
2023-02-03T19:41:40.901Z,5.97
2023-02-03T19:44:07.711Z,5.97
2023-02-03T19:46:39.153Z,6.06
2023-02-03T19:49:13.451Z,6.05
2023-02-03T19:51:40.848Z,6.05
2023-02-03T19:54:07.801Z,6.09
2023-02-03T19:56:34.414Z,6.10
2023-02-03T19:59:03.071Z,6.13
2023-02-03T20:01:29.557Z,6.21
2023-02-03T20:03:58.571Z,6.18
2023-02-03T20:06:28.147Z,6.24
2023-02-03T20:09:00.091Z,6.26
2023-02-03T20:11:28.124Z,6.35
2023-02-03T20:13:54.683Z,6.28
2023-02-03T20:16:21.054Z,6.29
2023-02-03T20:18:47.820Z,6.35
2023-02-03T20:21:14.528Z,6.40
2023-02-03T20:23:41.045Z,6.40
2023-02-03T20:26:07.677Z,6.37
2023-02-03T20:28:34.170Z,6.34
2023-02-03T20:31:02.766Z,6.40
2023-02-03T20:33:30.506Z,6.45
2023-02-03T20:35:58.031Z,6.43
2023-02-03T20:38:24.916Z,6.42
2023-02-03T20:40:51.547Z,6.44
2023-02-03T20:43:27.294Z,6.44
2023-02-03T20:45:54.804Z,6.52
2023-02-03T20:48:23.942Z,6.54
2023-02-03T20:50:50.669Z,6.57
2023-02-03T20:53:22.821Z,6.61
2023-02-03T20:55:50.770Z,6.58
2023-02-03T20:58:19.444Z,6.60
2023-02-03T21:00:49.731Z,6.60
2023-02-03T21:03:36.699Z,6.61
2023-02-03T21:06:12.114Z,6.60
2023-02-03T21:08:39.417Z,6.58
2023-02-03T21:11:18.804Z,6.54
2023-02-03T21:13:46.696Z,6.57
2023-02-03T21:16:18.151Z,6.54
2023-02-03T21:18:48.828Z,6.48
2023-02-03T21:21:50.861Z,6.52
2023-02-03T21:24:25.709Z,6.56
2023-02-03T21:26:52.801Z,6.57
2023-02-03T21:29:25.772Z,6.45
2023-02-03T21:31:53.540Z,6.46
2023-02-03T21:34:29.394Z,6.37
2023-02-03T21:36:57.642Z,6.47
2023-02-03T21:39:31.688Z,6.36
2023-02-03T21:42:02.873Z,6.36
2023-02-03T21:44:38.281Z,6.34
2023-02-03T21:47:11.708Z,6.39
2023-02-03T21:49:38.155Z,6.39
2023-02-03T21:52:04.814Z,6.36
2023-02-03T21:54:34.138Z,6.35
2023-02-03T21:57:01.607Z,6.42
2023-02-03T21:59:37.186Z,6.39
2023-02-03T22:02:24.829Z,6.38
2023-02-03T22:04:51.237Z,6.32
2023-02-03T22:07:24.221Z,6.38
2023-02-03T22:09:51.464Z,6.35
2023-02-03T22:12:18.056Z,6.33
2023-02-03T22:14:44.625Z,6.33
2023-02-03T22:17:14.298Z,6.26
2023-02-03T22:19:41.014Z,6.35
2023-02-03T22:22:07.427Z,6.30
2023-02-03T22:24:33.969Z,6.32
2023-02-03T22:27:00.679Z,6.17
2023-02-03T22:29:27.358Z,6.24
2023-02-03T22:31:54.108Z,6.25
2023-02-03T22:34:23.434Z,6.32
2023-02-03T22:36:50.009Z,6.35
2023-02-03T22:39:16.661Z,6.34
2023-02-03T22:41:43.208Z,6.39
2023-02-03T22:44:11.967Z,6.30
2023-02-03T22:46:38.545Z,6.31
2023-02-03T22:49:05.149Z,6.32
2023-02-03T22:51:31.529Z,6.32
2023-02-03T22:53:57.902Z,6.28
2023-02-03T22:56:24.329Z,6.28
2023-02-03T22:58:51.004Z,6.28
2023-02-03T23:01:17.430Z,6.28
2023-02-03T23:03:43.912Z,6.23
2023-02-03T23:06:11.600Z,6.22
2023-02-03T23:08:38.470Z,6.23
2023-02-03T23:11:05.218Z,6.22
2023-02-03T23:13:31.832Z,6.16
2023-02-03T23:15:58.518Z,6.16
2023-02-03T23:18:25.163Z,6.16
2023-02-03T23:20:51.819Z,6.13
2023-02-03T23:23:18.137Z,6.11
2023-02-03T23:25:44.497Z,5.98
2023-02-03T23:28:11.102Z,5.98
2023-02-03T23:30:37.579Z,5.99
2023-02-03T23:33:04.345Z,5.92
2023-02-03T23:35:57.228Z,5.90
2023-02-03T23:38:23.816Z,5.83
2023-02-03T23:40:50.168Z,5.86
2023-02-03T23:43:16.996Z,5.83
2023-02-03T23:45:43.674Z,5.82
2023-02-03T23:48:10.159Z,5.79
2023-02-03T23:50:36.978Z,5.77
2023-02-03T23:53:03.735Z,5.78
2023-02-03T23:55:31.258Z,5.75
2023-02-03T23:57:57.859Z,5.70
